Time;durP1;ratioP1;P1;durP2;ratioP2;P2;SDS_P1;SDS_P2;PMS_P1;PMS_P2;Temp;Humidity;BMP_temperature;BMP_pressure;BME280_temperature;BME280_humidity;BME280_pressure;Samples;Min_cycle;Max_cycle;Signal;HPM_P1;HPM_P2
2022/05/27 00:00:10;;;;;;;;;;;16.80;99.90;;;;;;4986286;28;19945;-83
2022/05/27 00:02:35;;;;;;;;;;;16.90;99.90;;;;;;4980923;28;19911;-83
2022/05/27 00:05:01;;;;;;;;;;;17.00;99.90;;;;;;4985704;28;20146;-83
2022/05/27 00:07:27;;;;;;;;;;;16.90;99.90;;;;;;4985763;28;20402;-83
2022/05/27 00:09:52;;;;;;;;;;;16.90;99.90;;;;;;4978250;28;19965;-83
2022/05/27 00:12:18;;;;;;;;;;;16.80;99.90;;;;;;4977457;28;20005;-82
2022/05/27 00:14:43;;;;;;;;;;;16.80;99.90;;;;;;4978064;28;19910;-83
2022/05/27 00:17:09;;;;;;;;;;;16.70;99.90;;;;;;4980222;28;20004;-83
2022/05/27 00:19:34;;;;;;;;;;;16.70;99.90;;;;;;4979192;28;19910;-83
2022/05/27 00:22:00;;;;;;;;;;;16.80;99.90;;;;;;4980858;28;20083;-83
2022/05/27 00:24:25;;;;;;;;;;;16.80;99.90;;;;;;4982695;28;20208;-83
2022/05/27 00:26:52;;;;;;;;;;;16.80;99.90;;;;;;4985242;28;19906;-82
2022/05/27 00:29:17;;;;;;;;;;;16.80;99.90;;;;;;4984557;28;19911;-83
2022/05/27 00:31:43;;;;;;;;;;;16.70;99.90;;;;;;4978502;28;19910;-83
2022/05/27 00:34:10;;;;;;;;;;;16.60;99.90;;;;;;4978782;28;19969;-83
2022/05/27 00:36:35;;;;;;;;;;;16.60;99.90;;;;;;4985324;28;20186;-83
2022/05/27 00:39:03;;;;;;;;;;;16.60;99.90;;;;;;4979371;28;19917;-82
2022/05/27 00:41:29;;;;;;;;;;;16.50;99.90;;;;;;4982463;28;19918;-82
2022/05/27 00:43:54;;;;;;;;;;;16.50;99.90;;;;;;4981613;28;20282;-83
2022/05/27 00:46:22;;;;;;;;;;;16.50;99.90;;;;;;4982849;28;20394;-83
2022/05/27 00:48:50;;;;;;;;;;;16.50;99.90;;;;;;4979743;28;19906;-83
2022/05/27 00:51:17;;;;;;;;;;;16.40;99.90;;;;;;4985444;28;19906;-83
2022/05/27 00:54:05;;;;;;;;;;;16.40;99.90;;;;;;4982867;28;19961;-83
2022/05/27 00:56:33;;;;;;;;;;;16.40;99.90;;;;;;4983604;28;19973;-82
2022/05/27 00:59:02;;;;;;;;;;;16.50;99.90;;;;;;4984381;28;19944;-82
2022/05/27 01:01:28;;;;;;;;;;;16.40;99.90;;;;;;4985293;28;19906;-83
2022/05/27 01:03:57;;;;;;;;;;;16.50;99.90;;;;;;4981300;28;19997;-82
2022/05/27 01:06:23;;;;;;;;;;;16.50;99.90;;;;;;4968192;28;20101;-82
2022/05/27 01:08:48;;;;;;;;;;;16.60;99.90;;;;;;4976752;28;19910;-83
2022/05/27 01:11:23;;;;;;;;;;;16.60;99.90;;;;;;4980298;28;19913;-82
2022/05/27 01:14:14;;;;;;;;;;;16.50;99.90;;;;;;4985545;28;19953;-83
2022/05/27 01:16:59;;;;;;;;;;;16.60;99.90;;;;;;4976869;28;19913;-83
2022/05/27 01:22:36;;;;;;;;;;;16.70;99.90;;;;;;4982226;28;19913;-83
2022/05/27 01:25:10;;;;;;;;;;;16.60;99.90;;;;;;4987019;28;19968;-83
2022/05/27 01:27:54;;;;;;;;;;;16.60;99.90;;;;;;4988952;28;19915;-83
2022/05/27 01:30:22;;;;;;;;;;;16.60;99.90;;;;;;4983824;28;19910;-82
2022/05/27 01:32:51;;;;;;;;;;;16.60;99.90;;;;;;4981033;28;19921;-83
2022/05/27 01:35:42;;;;;;;;;;;16.60;99.90;;;;;;4985952;28;19908;-83
2022/05/27 01:38:19;;;;;;;;;;;16.60;99.90;;;;;;4962961;28;20190;-83
2022/05/27 01:40:50;;;;;;;;;;;16.50;99.90;;;;;;4987938;28;19925;-83
2022/05/27 01:43:16;;;;;;;;;;;16.50;99.90;;;;;;4989287;28;19913;-82
2022/05/27 01:45:42;;;;;;;;;;;16.50;99.90;;;;;;4987235;28;19906;-83
2022/05/27 01:48:08;;;;;;;;;;;16.50;99.90;;;;;;4985048;28;19917;-83
2022/05/27 01:50:55;;;;;;;;;;;16.50;99.90;;;;;;4985802;28;19906;-83
2022/05/27 01:53:31;;;;;;;;;;;16.60;99.90;;;;;;4983431;28;19910;-83
2022/05/27 01:56:18;;;;;;;;;;;16.60;99.90;;;;;;4986557;28;20199;-83
2022/05/27 01:58:49;;;;;;;;;;;16.60;99.90;;;;;;4988108;28;19944;-83
2022/05/27 02:01:21;;;;;;;;;;;16.60;99.90;;;;;;4987566;28;19906;-83
2022/05/27 02:03:49;;;;;;;;;;;16.60;99.90;;;;;;4985871;28;20075;-83
2022/05/27 02:06:17;;;;;;;;;;;16.50;99.90;;;;;;4988097;28;19914;-83
2022/05/27 02:08:46;;;;;;;;;;;16.60;99.90;;;;;;4983483;28;19906;-83
2022/05/27 02:11:16;;;;;;;;;;;16.60;99.90;;;;;;4984751;28;19917;-83
2022/05/27 02:13:45;;;;;;;;;;;16.70;99.90;;;;;;4985444;28;19914;-83
2022/05/27 02:16:17;;;;;;;;;;;16.60;99.90;;;;;;4982021;28;20381;-83
2022/05/27 02:18:48;;;;;;;;;;;16.60;99.90;;;;;;4981253;28;20348;-83
2022/05/27 02:21:29;;;;;;;;;;;16.60;99.90;;;;;;4982093;28;19907;-83
2022/05/27 02:23:58;;;;;;;;;;;16.60;99.90;;;;;;4986841;28;20009;-83
2022/05/27 02:26:28;;;;;;;;;;;16.60;99.90;;;;;;4984244;28;19917;-83
2022/05/27 02:29:12;;;;;;;;;;;16.60;99.90;;;;;;4981339;28;20194;-83
2022/05/27 02:31:39;;;;;;;;;;;16.60;99.90;;;;;;4980487;28;20194;-83
2022/05/27 02:37:03;;;;;;;;;;;16.70;99.90;;;;;;4985969;28;20093;-83
2022/05/27 02:39:29;;;;;;;;;;;16.60;99.90;;;;;;4985357;28;19913;-83
2022/05/27 02:41:57;;;;;;;;;;;16.70;99.90;;;;;;4982131;28;19918;-83
2022/05/27 02:44:22;;;;;;;;;;;16.70;99.90;;;;;;4988260;28;19906;-83
2022/05/27 02:46:58;;;;;;;;;;;16.60;99.90;;;;;;4987770;28;19969;-83
2022/05/27 02:49:23;;;;;;;;;;;16.60;99.90;;;;;;4982933;28;19910;-83
2022/05/27 02:51:55;;;;;;;;;;;16.70;99.90;;;;;;4985300;28;19912;-83
2022/05/27 02:54:20;;;;;;;;;;;16.70;99.90;;;;;;4986304;28;19968;-83
2022/05/27 02:56:46;;;;;;;;;;;16.60;99.90;;;;;;4987476;28;20198;-83
2022/05/27 02:59:14;;;;;;;;;;;16.60;99.90;;;;;;4981774;28;19906;-83
2022/05/27 03:01:39;;;;;;;;;;;16.70;99.90;;;;;;4983170;28;19913;-83
2022/05/27 03:04:05;;;;;;;;;;;16.70;99.90;;;;;;4979012;28;20285;-83
2022/05/27 03:06:38;;;;;;;;;;;16.60;99.90;;;;;;4981892;28;19910;-83
2022/05/27 03:09:09;;;;;;;;;;;16.70;99.90;;;;;;4985365;28;19910;-83
2022/05/27 03:11:55;;;;;;;;;;;16.70;99.90;;;;;;4981174;28;19914;-83
2022/05/27 03:14:23;;;;;;;;;;;16.60;99.90;;;;;;4982237;28;19921;-83
2022/05/27 03:16:49;;;;;;;;;;;16.60;99.90;;;;;;4987573;28;19913;-83
2022/05/27 03:19:20;;;;;;;;;;;16.60;99.90;;;;;;4985133;28;19906;-83
2022/05/27 03:22:15;;;;;;;;;;;16.50;99.90;;;;;;4984439;28;19912;-83
2022/05/27 03:24:54;;;;;;;;;;;16.50;99.90;;;;;;4929227;28;19907;-83
2022/05/27 03:27:20;;;;;;;;;;;16.50;99.90;;;;;;4969670;28;19914;-83
2022/05/27 03:29:50;;;;;;;;;;;16.50;99.90;;;;;;4983824;28;19972;-83
2022/05/27 03:32:19;;;;;;;;;;;16.40;99.90;;;;;;4982337;28;19910;-83
2022/05/27 03:34:54;;;;;;;;;;;16.50;99.90;;;;;;4983330;28;19914;-83
2022/05/27 03:37:26;;;;;;;;;;;16.40;99.90;;;;;;4982255;28;20013;-83
2022/05/27 03:39:58;;;;;;;;;;;16.40;99.90;;;;;;4981007;28;19918;-83
2022/05/27 03:42:24;;;;;;;;;;;16.40;99.90;;;;;;4979858;28;20001;-83
2022/05/27 03:44:55;;;;;;;;;;;16.40;99.90;;;;;;4982414;28;19953;-83
2022/05/27 03:47:21;;;;;;;;;;;16.40;99.90;;;;;;4986810;28;19906;-83
2022/05/27 03:49:46;;;;;;;;;;;16.40;99.90;;;;;;4986931;28;19913;-83
2022/05/27 03:52:17;;;;;;;;;;;16.40;99.90;;;;;;4986198;28;19906;-83
2022/05/27 03:54:42;;;;;;;;;;;16.40;99.90;;;;;;4985059;28;19922;-83
2022/05/27 03:57:08;;;;;;;;;;;16.40;99.90;;;;;;4981245;28;20106;-83
2022/05/27 03:59:33;;;;;;;;;;;16.40;99.90;;;;;;4981925;28;19910;-83
2022/05/27 04:01:59;;;;;;;;;;;16.40;99.90;;;;;;4982503;28;20110;-83
2022/05/27 04:04:26;;;;;;;;;;;16.40;99.90;;;;;;4986401;28;19906;-83
2022/05/27 04:06:52;;;;;;;;;;;16.40;99.90;;;;;;4983125;28;20098;-83
2022/05/27 04:09:18;;;;;;;;;;;16.30;99.90;;;;;;4984519;28;19910;-83
2022/05/27 04:11:44;;;;;;;;;;;16.40;99.90;;;;;;4981077;28;19915;-83
2022/05/27 04:14:10;;;;;;;;;;;16.50;99.90;;;;;;4983314;28;19952;-83
2022/05/27 04:16:35;;;;;;;;;;;16.50;99.90;;;;;;4984213;28;19917;-83
2022/05/27 04:19:01;;;;;;;;;;;16.50;99.90;;;;;;4984057;28;19906;-83
2022/05/27 04:21:26;;;;;;;;;;;16.50;99.90;;;;;;4983505;28;19906;-83
2022/05/27 04:23:52;;;;;;;;;;;16.40;99.90;;;;;;4983234;28;19953;-83
2022/05/27 04:26:18;;;;;;;;;;;16.30;99.90;;;;;;4986177;28;19913;-83
2022/05/27 04:28:44;;;;;;;;;;;16.30;99.90;;;;;;4983594;28;19906;-83
2022/05/27 04:31:10;;;;;;;;;;;16.30;99.90;;;;;;4981401;28;20690;-83
2022/05/27 04:33:36;;;;;;;;;;;16.30;99.90;;;;;;4965877;28;19948;-82
2022/05/27 04:36:02;;;;;;;;;;;16.40;99.90;;;;;;4984160;28;19918;-83
2022/05/27 04:38:28;;;;;;;;;;;16.40;99.90;;;;;;4985573;28;19906;-83
2022/05/27 04:40:54;;;;;;;;;;;16.40;99.90;;;;;;4985547;28;19918;-83
2022/05/27 04:43:19;;;;;;;;;;;16.40;99.90;;;;;;4984244;28;20194;-83
2022/05/27 04:45:45;;;;;;;;;;;16.40;99.90;;;;;;4983934;28;19906;-83
2022/05/27 04:48:11;;;;;;;;;;;16.40;99.90;;;;;;4980578;28;19910;-83
2022/05/27 04:50:37;;;;;;;;;;;16.40;99.90;;;;;;4985537;28;19917;-83
2022/05/27 04:53:03;;;;;;;;;;;16.50;99.90;;;;;;4985870;28;19925;-83
2022/05/27 04:55:30;;;;;;;;;;;16.50;99.90;;;;;;4985469;28;19976;-83
2022/05/27 04:57:56;;;;;;;;;;;16.50;99.90;;;;;;4980423;28;19917;-83
2022/05/27 05:00:24;;;;;;;;;;;16.50;99.90;;;;;;4980956;28;20186;-83
2022/05/27 05:02:49;;;;;;;;;;;16.60;99.90;;;;;;4984539;28;19942;-83
2022/05/27 05:05:16;;;;;;;;;;;16.50;99.90;;;;;;4984952;28;19906;-83
2022/05/27 05:07:43;;;;;;;;;;;16.50;99.90;;;;;;4980843;28;20098;-83
2022/05/27 05:10:10;;;;;;;;;;;16.50;99.90;;;;;;4984598;28;19913;-83
2022/05/27 05:12:36;;;;;;;;;;;16.50;99.90;;;;;;4978940;28;19910;-83
2022/05/27 05:15:02;;;;;;;;;;;16.60;99.90;;;;;;4981938;28;20102;-83
2022/05/27 05:17:27;;;;;;;;;;;16.60;99.90;;;;;;4980818;28;19911;-83
2022/05/27 05:19:55;;;;;;;;;;;16.60;99.90;;;;;;4979966;28;19969;-83
2022/05/27 05:22:21;;;;;;;;;;;16.70;99.90;;;;;;4982383;28;20003;-83
2022/05/27 05:24:46;;;;;;;;;;;16.80;99.90;;;;;;4983545;28;19910;-83
2022/05/27 05:27:12;;;;;;;;;;;16.80;99.90;;;;;;4982120;28;19917;-83
2022/05/27 05:29:38;;;;;;;;;;;16.80;99.90;;;;;;4966188;28;19977;-83
2022/05/27 05:32:04;;;;;;;;;;;16.90;99.90;;;;;;4978603;28;19906;-85
2022/05/27 05:34:30;;;;;;;;;;;16.90;99.90;;;;;;4981205;28;19918;-84
2022/05/27 05:36:56;;;;;;;;;;;17.00;99.90;;;;;;4981462;28;19918;-85
2022/05/27 05:39:22;;;;;;;;;;;17.10;99.90;;;;;;4985156;28;19906;-84
2022/05/27 05:41:59;;;;;;;;;;;17.00;99.90;;;;;;4984843;28;19948;-85
2022/05/27 05:44:26;;;;;;;;;;;17.10;99.90;;;;;;4976910;28;19914;-84
2022/05/27 05:46:52;;;;;;;;;;;17.20;99.90;;;;;;4985177;28;19945;-84
2022/05/27 05:49:18;;;;;;;;;;;17.30;99.90;;;;;;4985235;28;19945;-84
2022/05/27 05:51:43;;;;;;;;;;;17.30;99.90;;;;;;4985535;28;19906;-84
2022/05/27 05:54:09;;;;;;;;;;;17.30;99.90;;;;;;4985079;28;19952;-84
2022/05/27 05:56:34;;;;;;;;;;;17.40;99.90;;;;;;4985084;28;19906;-84
2022/05/27 05:59:00;;;;;;;;;;;17.40;99.90;;;;;;4982144;28;19918;-85
2022/05/27 06:01:26;;;;;;;;;;;17.40;99.90;;;;;;4974485;28;19910;-84
2022/05/27 06:03:51;;;;;;;;;;;17.40;99.90;;;;;;4957093;28;19933;-85
2022/05/27 06:06:17;;;;;;;;;;;17.50;99.90;;;;;;4974933;28;19910;-85
2022/05/27 06:08:43;;;;;;;;;;;17.60;99.90;;;;;;4978161;28;20384;-85
2022/05/27 06:11:08;;;;;;;;;;;17.70;99.90;;;;;;4978376;28;19910;-85
2022/05/27 06:13:35;;;;;;;;;;;17.70;99.90;;;;;;4977972;28;19972;-85
2022/05/27 06:16:02;;;;;;;;;;;17.60;99.90;;;;;;4960545;28;20358;-84
2022/05/27 06:18:28;;;;;;;;;;;17.60;99.90;;;;;;4977824;28;20390;-85
2022/05/27 06:20:53;;;;;;;;;;;17.60;99.90;;;;;;4977808;28;19910;-84
2022/05/27 06:23:19;;;;;;;;;;;17.60;99.90;;;;;;4977818;28;20377;-85
2022/05/27 06:25:44;;;;;;;;;;;17.70;99.90;;;;;;4977937;28;19910;-85
2022/05/27 06:36:27;;;;;;;;;;;18.10;99.90;;;;;;4977646;28;19917;-86
2022/05/27 06:38:52;;;;;;;;;;;18.20;99.90;;;;;;4977538;28;20008;-85
2022/05/27 06:41:18;;;;;;;;;;;18.30;99.90;;;;;;4977192;28;20378;-85
2022/05/27 06:43:45;;;;;;;;;;;18.30;99.90;;;;;;4977377;28;19910;-85
2022/05/27 06:46:11;;;;;;;;;;;18.40;99.90;;;;;;4976189;28;19917;-85
2022/05/27 06:48:37;;;;;;;;;;;18.30;99.90;;;;;;4977529;28;20286;-85
2022/05/27 06:51:05;;;;;;;;;;;18.30;99.90;;;;;;4977676;28;19910;-85
2022/05/27 06:53:31;;;;;;;;;;;18.40;99.90;;;;;;4977333;28;19925;-85
2022/05/27 06:55:57;;;;;;;;;;;18.40;99.90;;;;;;4977254;28;19910;-85
2022/05/27 06:58:22;;;;;;;;;;;18.50;99.90;;;;;;4983635;28;19906;-85
2022/05/27 07:00:48;;;;;;;;;;;18.50;99.90;;;;;;4987859;28;19910;-86
2022/05/27 07:03:13;;;;;;;;;;;18.50;99.90;;;;;;4987049;28;20130;-84
2022/05/27 07:05:39;;;;;;;;;;;18.60;99.90;;;;;;4985497;28;20257;-84
2022/05/27 07:08:05;;;;;;;;;;;18.50;99.90;;;;;;4987425;28;20102;-86
2022/05/27 07:10:30;;;;;;;;;;;18.50;99.90;;;;;;4987699;28;20254;-84
2022/05/27 07:12:59;;;;;;;;;;;18.60;99.90;;;;;;4987076;28;19917;-85
2022/05/27 07:15:25;;;;;;;;;;;18.60;99.90;;;;;;4984728;28;19910;-85
2022/05/27 07:17:51;;;;;;;;;;;18.60;99.90;;;;;;4987263;28;19992;-85
2022/05/27 07:20:16;;;;;;;;;;;18.70;99.90;;;;;;4987185;28;20199;-86
2022/05/27 07:22:43;;;;;;;;;;;18.70;99.90;;;;;;4983715;28;20001;-84
2022/05/27 07:25:11;;;;;;;;;;;18.70;99.90;;;;;;4987478;28;19906;-84
2022/05/27 07:27:37;;;;;;;;;;;18.90;99.90;;;;;;4987314;28;19913;-85
2022/05/27 07:30:03;;;;;;;;;;;18.80;99.90;;;;;;4986140;28;19977;-85
2022/05/27 07:32:31;;;;;;;;;;;18.70;99.90;;;;;;4969985;28;19906;-85
2022/05/27 07:34:57;;;;;;;;;;;18.90;99.90;;;;;;4986437;28;19914;-85
2022/05/27 07:37:22;;;;;;;;;;;19.20;99.90;;;;;;4987153;28;19981;-84
2022/05/27 07:39:48;;;;;;;;;;;19.30;99.90;;;;;;4986778;28;20179;-84
2022/05/27 07:42:13;;;;;;;;;;;19.50;99.90;;;;;;4986649;28;19906;-85
2022/05/27 07:44:40;;;;;;;;;;;19.60;99.90;;;;;;4983221;28;19956;-85
2022/05/27 07:47:06;;;;;;;;;;;19.80;99.90;;;;;;4986424;28;20186;-85
2022/05/27 07:49:31;;;;;;;;;;;19.90;99.90;;;;;;4985329;28;19906;-85
2022/05/27 07:51:57;;;;;;;;;;;19.70;99.90;;;;;;4986278;28;19913;-85
2022/05/27 07:54:23;;;;;;;;;;;19.60;99.90;;;;;;4986117;28;19990;-84
2022/05/27 07:56:48;;;;;;;;;;;19.60;99.90;;;;;;4984821;28;20265;-85
2022/05/27 07:59:14;;;;;;;;;;;19.60;99.90;;;;;;4985779;28;20102;-85
2022/05/27 08:01:40;;;;;;;;;;;19.70;99.90;;;;;;4969528;28;19913;-84
2022/05/27 08:04:06;;;;;;;;;;;19.90;99.90;;;;;;4985225;28;19913;-85
2022/05/27 08:06:31;;;;;;;;;;;20.00;99.90;;;;;;4984457;28;19910;-85
2022/05/27 08:08:57;;;;;;;;;;;20.20;99.90;;;;;;4982313;28;19913;-85
2022/05/27 08:11:24;;;;;;;;;;;20.30;99.90;;;;;;4984410;28;20070;-84
2022/05/27 08:13:49;;;;;;;;;;;20.40;99.90;;;;;;4986605;28;20164;-85
2022/05/27 08:16:15;;;;;;;;;;;20.40;99.90;;;;;;4981736;28;19917;-85
2022/05/27 08:18:41;;;;;;;;;;;20.50;99.90;;;;;;4984451;28;19917;-85
2022/05/27 08:21:07;;;;;;;;;;;20.50;99.90;;;;;;4986402;28;19973;-85
2022/05/27 08:23:32;;;;;;;;;;;20.50;99.90;;;;;;4985935;28;19906;-85
2022/05/27 08:25:58;;;;;;;;;;;20.70;99.90;;;;;;4984995;28;19906;-85
2022/05/27 08:28:24;;;;;;;;;;;20.90;99.90;;;;;;4982857;28;20013;-84
2022/05/27 08:30:50;;;;;;;;;;;21.00;99.90;;;;;;4978498;28;20277;-85
2022/05/27 08:33:16;;;;;;;;;;;20.80;99.90;;;;;;4978455;28;19918;-85
2022/05/27 08:38:30;;;;;;;;;;;21.10;99.90;;;;;;4975865;28;19932;-85
2022/05/27 08:40:56;;;;;;;;;;;21.10;99.90;;;;;;4978544;28;19922;-84
2022/05/27 08:43:21;;;;;;;;;;;21.20;99.90;;;;;;4975508;28;19965;-84
2022/05/27 08:46:05;;;;;;;;;;;21.20;99.90;;;;;;4974584;28;19972;-84
2022/05/27 08:48:34;;;;;;;;;;;21.20;99.90;;;;;;4975662;28;19910;-84
2022/05/27 08:51:06;;;;;;;;;;;21.00;99.90;;;;;;4978357;28;19910;-83
2022/05/27 08:53:35;;;;;;;;;;;20.60;99.90;;;;;;4977977;28;19918;-83
2022/05/27 09:01:45;;;;;;;;;;;20.70;99.90;;;;;;4980601;28;19957;-83
2022/05/27 09:04:10;;;;;;;;;;;20.70;99.90;;;;;;4979051;28;19966;-83
2022/05/27 09:06:41;;;;;;;;;;;20.60;99.90;;;;;;4983687;28;19983;-83
2022/05/27 09:09:18;;;;;;;;;;;20.50;99.90;;;;;;4978269;28;19906;-85
2022/05/27 09:12:06;;;;;;;;;;;20.50;99.90;;;;;;4977242;28;19914;-84
2022/05/27 09:14:35;;;;;;;;;;;20.60;99.90;;;;;;4970299;28;19914;-84
2022/05/27 09:17:02;;;;;;;;;;;20.80;99.90;;;;;;4979458;28;20290;-84
2022/05/27 09:19:30;;;;;;;;;;;20.90;99.90;;;;;;4979845;28;20011;-84
2022/05/27 09:22:16;;;;;;;;;;;20.90;99.90;;;;;;4977481;28;19917;-84
2022/05/27 09:25:05;;;;;;;;;;;21.00;99.90;;;;;;4949097;28;20327;-84
2022/05/27 09:27:30;;;;;;;;;;;21.10;99.90;;;;;;4952959;28;20001;-84
2022/05/27 09:30:01;;;;;;;;;;;21.20;99.90;;;;;;4981324;28;19929;-84
2022/05/27 09:32:30;;;;;;;;;;;21.20;99.90;;;;;;4980245;28;20381;-84
2022/05/27 09:34:57;;;;;;;;;;;21.30;99.90;;;;;;4979262;28;19965;-84
2022/05/27 09:37:25;;;;;;;;;;;21.30;99.90;;;;;;4980242;28;19910;-84
2022/05/27 09:39:53;;;;;;;;;;;21.20;99.90;;;;;;4978824;28;19914;-84
2022/05/27 09:42:30;;;;;;;;;;;21.30;99.90;;;;;;4980872;28;20380;-84
2022/05/27 09:44:58;;;;;;;;;;;21.80;99.90;;;;;;4981661;28;20481;-84
2022/05/27 09:47:30;;;;;;;;;;;22.40;99.90;;;;;;4982616;28;20358;-84
2022/05/27 09:50:00;;;;;;;;;;;22.90;99.90;;;;;;4983176;28;19934;-84
2022/05/27 09:52:27;;;;;;;;;;;23.10;99.50;;;;;;4982620;28;19910;-84
2022/05/27 09:54:55;;;;;;;;;;;23.10;99.50;;;;;;4979875;28;20016;-84
2022/05/27 09:57:23;;;;;;;;;;;22.90;99.80;;;;;;4980294;28;19917;-82
2022/05/27 09:59:53;;;;;;;;;;;22.60;99.80;;;;;;4979940;28;19917;-82
2022/05/27 10:02:36;;;;;;;;;;;22.30;99.90;;;;;;4977093;28;20378;-81
2022/05/27 10:05:05;;;;;;;;;;;22.20;99.90;;;;;;4978396;28;20400;-81
2022/05/27 10:07:30;;;;;;;;;;;22.40;99.90;;;;;;4978223;28;19969;-81
2022/05/27 10:09:56;;;;;;;;;;;22.70;99.90;;;;;;4978035;28;20369;-82
2022/05/27 10:12:33;;;;;;;;;;;22.70;99.40;;;;;;4978023;28;20297;-82
2022/05/27 10:14:59;;;;;;;;;;;22.40;99.80;;;;;;4977926;28;19918;-82
2022/05/27 10:17:31;;;;;;;;;;;22.30;99.80;;;;;;4977967;28;20362;-82
2022/05/27 10:20:15;;;;;;;;;;;22.30;99.90;;;;;;4980317;28;19911;-81
2022/05/27 10:22:41;;;;;;;;;;;22.50;99.90;;;;;;4978204;28;19910;-82
2022/05/27 10:25:09;;;;;;;;;;;22.60;99.90;;;;;;4979151;28;20014;-81
2022/05/27 10:27:34;;;;;;;;;;;22.70;99.60;;;;;;4977848;28;19918;-82
2022/05/27 10:30:02;;;;;;;;;;;22.80;99.60;;;;;;4977653;28;19914;-83
2022/05/27 10:32:31;;;;;;;;;;;22.80;99.80;;;;;;4977692;28;19910;-82
2022/05/27 10:34:58;;;;;;;;;;;23.00;99.70;;;;;;4977596;28;20012;-81
2022/05/27 10:37:45;;;;;;;;;;;23.50;99.90;;;;;;4977954;28;19953;-82
2022/05/27 10:40:26;;;;;;;;;;;23.90;98.80;;;;;;4978820;28;19919;-81
2022/05/27 10:42:54;;;;;;;;;;;23.80;98.70;;;;;;4977868;28;20330;-82
2022/05/27 10:45:26;;;;;;;;;;;23.40;98.80;;;;;;4977534;28;19920;-81
2022/05/27 10:47:51;;;;;;;;;;;23.20;99.30;;;;;;4977462;28;19911;-83
2022/05/27 10:50:26;;;;;;;;;;;23.30;99.50;;;;;;4977187;28;19965;-82
2022/05/27 10:53:02;;;;;;;;;;;23.40;99.60;;;;;;4976715;28;19910;-82
2022/05/27 10:55:31;;;;;;;;;;;23.70;99.00;;;;;;4977097;28;19918;-82
2022/05/27 11:04:24;;;;;;;;;;;23.90;98.90;;;;;;4978174;28;20389;-82
2022/05/27 11:06:56;;;;;;;;;;;24.10;97.90;;;;;;4977095;28;19910;-81
2022/05/27 11:09:29;;;;;;;;;;;24.00;98.00;;;;;;4978599;28;19906;-82
2022/05/27 11:12:07;;;;;;;;;;;24.10;98.30;;;;;;4977132;28;20363;-82
2022/05/27 11:18:15;;;;;;;;;;;24.60;97.60;;;;;;4976868;28;19963;-82
2022/05/27 11:20:45;;;;;;;;;;;24.60;97.80;;;;;;4917281;29;19938;-82
2022/05/27 11:23:36;;;;;;;;;;;24.50;97.70;;;;;;4917607;29;19911;-82
2022/05/27 11:26:16;;;;;;;;;;;24.50;97.90;;;;;;4957596;28;20393;-82
2022/05/27 11:28:48;;;;;;;;;;;24.60;97.80;;;;;;4976744;28;19910;-82
2022/05/27 11:31:25;;;;;;;;;;;24.50;97.80;;;;;;4976542;28;19917;-83
2022/05/27 11:34:09;;;;;;;;;;;24.60;97.80;;;;;;4976450;28;20016;-82
2022/05/27 11:36:53;;;;;;;;;;;24.90;97.50;;;;;;4976626;28;19917;-81
2022/05/27 11:39:34;;;;;;;;;;;25.10;97.40;;;;;;4976484;28;20006;-82
2022/05/27 11:42:12;;;;;;;;;;;25.10;97.10;;;;;;4976734;28;20020;-82
2022/05/27 11:44:42;;;;;;;;;;;25.30;97.00;;;;;;4976516;28;19917;-82
2022/05/27 11:47:08;;;;;;;;;;;25.50;96.90;;;;;;4976541;28;19996;-82
2022/05/27 11:49:52;;;;;;;;;;;25.60;96.30;;;;;;4976434;28;20342;-82
2022/05/27 11:52:42;;;;;;;;;;;25.70;96.30;;;;;;4976337;28;20412;-83
2022/05/27 11:55:14;;;;;;;;;;;26.20;96.10;;;;;;4976201;28;19918;-83
2022/05/27 11:57:42;;;;;;;;;;;26.30;96.00;;;;;;4976265;28;19917;-82
2022/05/27 12:00:13;;;;;;;;;;;26.10;96.00;;;;;;4976281;28;19910;-83
2022/05/27 12:02:52;;;;;;;;;;;25.80;95.80;;;;;;4976230;28;19911;-83
2022/05/27 12:05:19;;;;;;;;;;;25.60;96.40;;;;;;4974858;28;19961;-83
2022/05/27 12:07:50;;;;;;;;;;;25.50;96.70;;;;;;4974773;28;19914;-83
2022/05/27 12:10:18;;;;;;;;;;;25.80;96.30;;;;;;4975895;28;20004;-83
2022/05/27 12:12:57;;;;;;;;;;;25.80;95.90;;;;;;4975713;28;19914;-83
2022/05/27 12:15:24;;;;;;;;;;;25.90;95.80;;;;;;4975861;28;19998;-82
2022/05/27 12:17:51;;;;;;;;;;;26.10;95.90;;;;;;4975688;28;19949;-83
2022/05/27 12:20:28;;;;;;;;;;;25.90;95.40;;;;;;4975858;28;19934;-83
2022/05/27 12:22:54;;;;;;;;;;;25.50;96.00;;;;;;4976003;28;19910;-82
2022/05/27 12:25:21;;;;;;;;;;;25.40;96.20;;;;;;4975642;28;19965;-83
2022/05/27 12:27:49;;;;;;;;;;;25.50;96.10;;;;;;4975628;28;19916;-83
2022/05/27 12:30:16;;;;;;;;;;;25.20;96.30;;;;;;4975862;28;19914;-83
2022/05/27 12:32:42;;;;;;;;;;;25.20;96.90;;;;;;4975262;28;20016;-83
2022/05/27 12:35:22;;;;;;;;;;;24.80;97.60;;;;;;4975226;28;19918;-83
2022/05/27 12:37:49;;;;;;;;;;;24.50;98.30;;;;;;4975238;28;20374;-83
2022/05/27 12:40:18;;;;;;;;;;;24.60;98.10;;;;;;4975298;28;19964;-83
2022/05/27 12:42:43;;;;;;;;;;;24.30;98.20;;;;;;4975451;28;20385;-83
2022/05/27 12:45:18;;;;;;;;;;;23.80;99.00;;;;;;4957999;28;19961;-82
2022/05/27 12:47:47;;;;;;;;;;;23.80;99.60;;;;;;4975478;28;19910;-82
2022/05/27 12:50:20;;;;;;;;;;;23.70;99.10;;;;;;4975294;28;19950;-83
2022/05/27 12:52:49;;;;;;;;;;;24.00;99.10;;;;;;4975195;28;19910;-81
2022/05/27 12:55:33;;;;;;;;;;;23.90;98.70;;;;;;4975332;28;19917;-83
2022/05/27 13:01:09;;;;;;;;;;;23.80;98.70;;;;;;4975438;28;19917;-83
2022/05/27 13:03:38;;;;;;;;;;;23.50;98.90;;;;;;4952461;28;19910;-81
2022/05/27 13:06:14;;;;;;;;;;;23.60;98.90;;;;;;4975388;28;20388;-81
2022/05/27 13:08:51;;;;;;;;;;;23.80;98.70;;;;;;4975369;28;19965;-81
2022/05/27 13:11:20;;;;;;;;;;;24.00;98.80;;;;;;4975010;28;19916;-82
2022/05/27 13:13:45;;;;;;;;;;;24.50;98.10;;;;;;4974826;28;19925;-83
2022/05/27 13:16:29;;;;;;;;;;;25.00;97.80;;;;;;4974336;28;19912;-82
2022/05/27 13:19:03;;;;;;;;;;;25.30;97.20;;;;;;4973580;28;19910;-83
2022/05/27 13:21:34;;;;;;;;;;;25.40;97.00;;;;;;4974802;28;19917;-82
2022/05/27 13:24:06;;;;;;;;;;;25.70;96.60;;;;;;4974860;28;20409;-82
2022/05/27 13:26:35;;;;;;;;;;;25.70;96.40;;;;;;4974947;28;19910;-82
2022/05/27 13:29:00;;;;;;;;;;;25.70;96.70;;;;;;4974957;28;19918;-83
2022/05/27 13:31:38;;;;;;;;;;;25.90;96.10;;;;;;4975994;28;20260;-81
2022/05/27 13:34:06;;;;;;;;;;;26.10;96.20;;;;;;4974547;28;20409;-83
2022/05/27 13:36:38;;;;;;;;;;;26.50;96.60;;;;;;4974648;28;19942;-83
2022/05/27 13:39:10;;;;;;;;;;;27.90;95.10;;;;;;4974970;28;19910;-83
2022/05/27 13:41:40;;;;;;;;;;;28.50;94.30;;;;;;4974755;28;19937;-80
2022/05/27 13:44:06;;;;;;;;;;;27.90;94.30;;;;;;4974946;28;19918;-83
2022/05/27 13:46:35;;;;;;;;;;;27.50;95.00;;;;;;4978678;28;19916;-83
2022/05/27 13:49:05;;;;;;;;;;;28.10;94.70;;;;;;4974690;28;19910;-83
2022/05/27 13:51:38;;;;;;;;;;;28.70;94.40;;;;;;4974710;28;19941;-81
2022/05/27 13:54:12;;;;;;;;;;;29.00;94.00;;;;;;4977905;28;19961;-84
2022/05/27 13:56:38;;;;;;;;;;;29.90;93.40;;;;;;4974405;28;19917;-79
2022/05/27 13:59:12;;;;;;;;;;;30.70;92.40;;;;;;4974507;28;19960;-84
2022/05/27 14:01:46;;;;;;;;;;;31.80;92.10;;;;;;4973330;28;19917;-79
2022/05/27 14:04:30;;;;;;;;;;;33.60;90.90;;;;;;4976491;28;19910;-79
2022/05/27 14:06:56;;;;;;;;;;;34.10;90.10;;;;;;4976313;28;19910;-84
2022/05/27 14:09:23;;;;;;;;;;;33.40;89.50;;;;;;4974284;28;19910;-84
2022/05/27 14:11:51;;;;;;;;;;;34.00;88.40;;;;;;4974429;28;19911;-85
2022/05/27 14:14:21;;;;;;;;;;;34.10;87.50;;;;;;4974270;28;20005;-87
2022/05/27 14:16:47;;;;;;;;;;;34.70;86.30;;;;;;4974506;28;19914;-88
2022/05/27 14:19:17;;;;;;;;;;;34.60;85.50;;;;;;4974486;28;19964;-84
2022/05/27 14:24:31;;;;;;;;;;;34.50;85.20;;;;;;4974378;28;19934;-88
2022/05/27 14:26:57;;;;;;;;;;;34.30;85.30;;;;;;4974431;28;19910;-84
2022/05/27 14:29:23;;;;;;;;;;;35.20;84.90;;;;;;4976500;28;20290;-84
2022/05/27 14:31:49;;;;;;;;;;;35.80;83.50;;;;;;4977867;28;19917;-89
2022/05/27 14:34:17;;;;;;;;;;;35.30;83.20;;;;;;4977533;28;19918;-89
2022/05/27 14:36:54;;;;;;;;;;;34.10;83.80;;;;;;4977529;28;20285;-84
2022/05/27 14:39:21;;;;;;;;;;;34.30;83.60;;;;;;4977615;28;19910;-83
2022/05/27 14:41:48;;;;;;;;;;;33.90;84.20;;;;;;4977645;28;19919;-88
2022/05/27 14:44:19;;;;;;;;;;;34.20;84.40;;;;;;4977834;28;20370;-89
2022/05/27 14:47:00;;;;;;;;;;;34.30;83.80;;;;;;4977648;28;19933;-89
2022/05/27 14:49:30;;;;;;;;;;;33.90;83.80;;;;;;4977598;28;20004;-83
2022/05/27 14:51:56;;;;;;;;;;;34.70;83.50;;;;;;4977278;28;19910;-87
2022/05/27 14:54:24;;;;;;;;;;;35.10;82.80;;;;;;4977375;28;19918;-83
2022/05/27 14:57:09;;;;;;;;;;;34.70;84.00;;;;;;4977075;28;20313;-84
2022/05/27 14:59:35;;;;;;;;;;;35.30;83.70;;;;;;4977203;28;20429;-90
2022/05/27 15:02:01;;;;;;;;;;;36.40;81.90;;;;;;4977185;28;19914;-83
2022/05/27 15:04:28;;;;;;;;;;;37.40;81.10;;;;;;4977242;28;19911;-83
2022/05/27 15:07:12;;;;;;;;;;;36.70;80.80;;;;;;4977358;28;20326;-83